Time;durP1;ratioP1;P1;durP2;ratioP2;P2;SDS_P1;SDS_P2;PMS_P1;PMS_P2;Temp;Humidity;BMP_temperature;BMP_pressure;BME280_temperature;BME280_humidity;BME280_pressure;Samples;Min_cycle;Max_cycle;Signal;HPM_P1;HPM_P2
2022/10/04 00:00:42;;;;;;;7.60;4.07;;;;;;;5.80;100.00;99356.78;4188444;28;20079;-71
2022/10/04 00:02:46;;;;;;;6.90;4.20;;;;;;;5.79;100.00;99355.13;4187889;28;20047;-71
2022/10/04 00:04:53;;;;;;;7.30;4.22;;;;;;;5.78;100.00;99342.53;4187028;28;20072;-71
2022/10/04 00:07:03;;;;;;;9.15;4.00;;;;;;;5.79;100.00;99338.66;4187802;28;20540;-71
2022/10/04 00:09:11;;;;;;;4.95;3.30;;;;;;;5.78;100.00;99348.84;4187032;28;20044;-71
2022/10/04 00:11:25;;;;;;;8.32;3.78;;;;;;;5.71;100.00;99353.19;4188319;28;20436;-71
2022/10/04 00:13:27;;;;;;;8.35;3.55;;;;;;;5.67;100.00;99346.75;4187929;28;20435;-71
2022/10/04 00:15:31;;;;;;;4.55;3.65;;;;;;;5.65;100.00;99349.84;4188013;28;20049;-71
2022/10/04 00:17:34;;;;;;;5.10;3.00;;;;;;;5.60;100.00;99353.53;4186290;28;20045;-71
2022/10/04 00:19:47;;;;;;;6.97;4.10;;;;;;;5.57;100.00;99345.16;4186755;28;20048;-71
2022/10/04 00:21:55;;;;;;;8.63;3.92;;;;;;;5.62;100.00;99343.03;4187257;28;20052;-71
2022/10/04 00:24:09;;;;;;;6.65;3.30;;;;;;;5.61;100.00;99341.44;4188081;28;20183;-71
2022/10/04 00:26:33;;;;;;;6.18;3.55;;;;;;;5.66;100.00;99343.22;4186240;28;20127;-72
2022/10/04 00:28:36;;;;;;;6.60;3.05;;;;;;;5.69;100.00;99345.28;4187347;28;20291;-72
2022/10/04 00:30:37;;;;;;;5.72;3.83;;;;;;;5.62;100.00;99344.97;4187475;28;20037;-71
2022/10/04 00:32:38;;;;;;;6.65;3.35;;;;;;;5.58;100.00;99349.50;4187285;28;20507;-71
2022/10/04 00:34:47;;;;;;;6.15;3.58;;;;;;;5.54;100.00;99351.28;4187008;28;20385;-71
2022/10/04 00:36:55;;;;;;;5.25;3.47;;;;;;;5.53;100.00;99347.72;4186895;28;20311;-71
2022/10/04 00:39:05;;;;;;;10.32;3.53;;;;;;;5.47;100.00;99348.25;4186733;28;20041;-71
2022/10/04 00:41:07;;;;;;;4.68;3.10;;;;;;;5.43;100.00;99355.47;4187326;28;20053;-71
2022/10/04 00:43:15;;;;;;;6.05;3.85;;;;;;;5.39;100.00;99351.78;4187067;28;20541;-71
2022/10/04 00:46:00;;;;;;;8.40;4.53;;;;;;;5.36;100.00;99348.53;4187198;28;20095;-71
2022/10/04 00:48:07;;;;;;;16.77;10.77;;;;;;;5.39;100.00;99349.03;4186717;28;20072;-71
2022/10/04 00:50:16;;;;;;;12.93;7.80;;;;;;;5.41;100.00;99347.56;4186398;28;20037;-71
2022/10/04 00:52:27;;;;;;;9.40;6.45;;;;;;;5.40;100.00;99347.91;4186931;28;20028;-71
2022/10/04 00:54:40;;;;;;;11.68;6.90;;;;;;;5.36;100.00;99344.97;4186968;28;20151;-71
2022/10/04 00:56:48;;;;;;;;;;;;;;;5.34;100.00;99339.00;4187506;28;20045;-71
2022/10/04 00:58:56;;;;;;;8.13;3.72;;;;;;;5.28;100.00;99341.09;4185780;28;19916;-71
2022/10/04 01:00:57;;;;;;;9.95;4.05;;;;;;;5.25;100.00;99340.94;4187265;28;20888;-71
2022/10/04 01:03:04;;;;;;;6.93;3.80;;;;;;;5.27;100.00;99344.19;4186292;28;20907;-71
2022/10/04 01:05:09;;;;;;;6.43;3.67;;;;;;;5.25;100.00;99341.75;4187007;28;20917;-71
2022/10/04 01:07:13;;;;;;;6.50;3.80;;;;;;;5.22;100.00;99342.41;4186920;28;20105;-71
2022/10/04 01:09:16;;;;;;;7.47;4.55;;;;;;;5.13;100.00;99336.13;4186500;28;20048;-71
2022/10/04 01:11:43;;;;;;;4.93;3.33;;;;;;;5.13;100.00;99338.84;4186581;28;20080;-71
2022/10/04 01:13:55;;;;;;;6.07;3.50;;;;;;;5.14;100.00;99347.88;4186416;28;20132;-71
2022/10/04 01:16:02;;;;;;;5.20;3.25;;;;;;;5.03;100.00;99339.13;4186895;28;20045;-71
2022/10/04 01:18:07;;;;;;;7.70;3.40;;;;;;;5.00;100.00;99334.31;4185847;28;20045;-71
2022/10/04 01:21:01;;;;;;;4.22;3.42;;;;;;;4.95;100.00;99329.78;4186540;28;20082;-72
2022/10/04 01:23:02;;;;;;;5.78;3.55;;;;;;;4.90;100.00;99312.69;4134814;28;20050;-71
2022/10/04 01:25:03;;;;;;;6.15;3.42;;;;;;;4.85;100.00;99312.81;4170739;28;20135;-71
2022/10/04 01:27:40;;;;;;;4.82;3.40;;;;;;;4.78;100.00;99316.03;4186149;28;20072;-71
2022/10/04 01:29:40;;;;;;;6.15;3.78;;;;;;;4.70;100.00;99306.66;4185912;28;20150;-71
2022/10/04 01:31:44;;;;;;;5.70;3.03;;;;;;;4.64;100.00;99309.88;4186362;28;20044;-71
2022/10/04 01:33:45;;;;;;;8.30;2.63;;;;;;;4.61;100.00;99314.06;4185977;28;20056;-71
2022/10/04 01:35:47;;;;;;;6.90;3.67;;;;;;;4.55;100.00;99325.47;4186694;28;20040;-71
2022/10/04 01:37:47;;;;;;;5.63;3.23;;;;;;;4.48;100.00;99326.75;4186054;28;20094;-71
2022/10/04 01:39:47;;;;;;;4.32;2.88;;;;;;;4.45;100.00;99326.56;4185906;28;20553;-71
2022/10/04 01:42:08;;;;;;;6.88;3.70;;;;;;;4.48;100.00;99312.25;4186639;28;20048;-71
2022/10/04 01:44:11;;;;;;;5.35;3.03;;;;;;;4.55;100.00;99306.28;4185077;28;20051;-71
2022/10/04 01:46:19;;;;;;;4.20;2.97;;;;;;;4.53;100.00;99312.09;4170637;28;20098;-71
2022/10/04 01:48:25;;;;;;;5.57;3.05;;;;;;;4.49;100.00;99320.16;4185704;28;20036;-71
2022/10/04 01:50:34;;;;;;;6.78;3.45;;;;;;;4.50;100.00;99312.75;4186600;28;20141;-71
2022/10/04 01:52:42;;;;;;;6.20;3.70;;;;;;;4.54;100.00;99307.41;4185732;28;20505;-71
2022/10/04 01:54:49;;;;;;;7.60;3.47;;;;;;;4.60;100.00;99306.97;4185688;28;20689;-71
2022/10/04 01:57:14;;;;;;;8.13;3.40;;;;;;;4.61;100.00;99305.03;4186224;28;20044;-71
2022/10/04 01:59:23;;;;;;;5.43;3.10;;;;;;;4.59;100.00;99308.09;4185663;28;20481;-71
2022/10/04 02:01:34;;;;;;;4.63;3.38;;;;;;;4.61;100.00;99305.03;4185900;28;20388;-71
2022/10/04 02:03:51;;;;;;;4.65;3.13;;;;;;;4.63;100.00;99297.28;4185067;28;20083;-71
2022/10/04 02:05:56;;;;;;;7.22;3.95;;;;;;;4.55;100.00;99295.31;4185985;28;20159;-71
2022/10/04 02:08:02;;;;;;;5.07;3.50;;;;;;;4.54;100.00;99288.22;4185984;28;20040;-71
2022/10/04 02:10:09;;;;;;;4.68;3.10;;;;;;;4.60;100.00;99293.25;4184912;28;20054;-71
2022/10/04 02:12:17;;;;;;;5.38;3.17;;;;;;;4.67;100.00;99290.06;4185919;28;20040;-71
2022/10/04 02:14:21;;;;;;;9.10;3.75;;;;;;;4.63;100.00;99289.88;4185546;28;20032;-71
2022/10/04 02:16:23;;;;;;;5.40;3.05;;;;;;;4.54;100.00;99285.50;4185961;28;20295;-71
2022/10/04 02:18:25;;;;;;;9.10;3.80;;;;;;;4.46;100.00;99293.38;4185757;28;20044;-71
2022/10/04 02:20:27;;;;;;;8.48;3.53;;;;;;;4.36;100.00;99287.38;4185807;28;20120;-71
2022/10/04 02:22:28;;;;;;;6.90;3.58;;;;;;;4.32;100.00;99291.88;4185795;28;20051;-71
2022/10/04 02:24:32;;;;;;;9.50;3.47;;;;;;;4.31;100.00;99288.34;4185856;28;20731;-71
2022/10/04 02:26:32;;;;;;;5.05;3.28;;;;;;;4.33;100.00;99291.56;4186799;28;20578;-71
2022/10/04 02:28:34;;;;;;;5.15;3.60;;;;;;;4.35;100.00;99300.28;4185705;28;20029;-71
2022/10/04 02:30:37;;;;;;;9.85;4.35;;;;;;;4.39;100.00;99303.19;4185968;28;20041;-71
2022/10/04 02:32:59;;;;;;;6.95;3.35;;;;;;;4.39;100.00;99300.47;4185617;28;20132;-71
2022/10/04 02:35:00;;;;;;;6.47;3.70;;;;;;;4.44;100.00;99303.03;4185970;28;20055;-71
2022/10/04 02:37:05;;;;;;;6.93;4.05;;;;;;;4.44;100.00;99303.84;4186139;28;20057;-71
2022/10/04 02:39:15;;;;;;;5.93;3.55;;;;;;;4.45;100.00;99301.91;4185128;28;20423;-71
2022/10/04 02:41:28;;;;;;;8.77;3.85;;;;;;;4.45;100.00;99289.00;4188737;28;20047;-71
2022/10/04 02:43:51;;;;;;;8.63;4.30;;;;;;;4.44;100.00;99276.44;4189483;28;20162;-71
2022/10/04 02:46:01;;;;;;;7.45;3.70;;;;;;;4.43;100.00;99268.53;4189500;28;20468;-71
2022/10/04 02:48:24;;;;;;;5.03;3.30;;;;;;;4.43;100.00;99274.03;4189344;28;20138;-71
2022/10/04 02:50:31;;;;;;;6.43;4.00;;;;;;;4.46;100.00;99270.63;4188735;28;20369;-71
2022/10/04 02:52:45;;;;;;;5.97;3.90;;;;;;;4.44;100.00;99262.75;4188652;28;20124;-71
2022/10/04 02:54:56;;;;;;;6.70;3.55;;;;;;;4.48;100.00;99260.19;4188956;28;20464;-71
2022/10/04 02:56:57;;;;;;;9.43;3.80;;;;;;;4.47;100.00;99261.31;4189193;28;20147;-71
2022/10/04 02:59:03;;;;;;;6.15;3.92;;;;;;;4.49;100.00;99254.38;4188196;28;20055;-71
2022/10/04 03:01:03;;;;;;;8.77;3.90;;;;;;;4.51;100.00;99260.34;4189423;28;20342;-71
2022/10/04 03:03:27;;;;;;;9.70;3.53;;;;;;;4.51;100.00;99268.56;4187884;28;20440;-71
2022/10/04 03:05:28;;;;;;;9.32;4.13;;;;;;;4.50;100.00;99266.16;4187784;28;20079;-71
2022/10/04 03:07:31;;;;;;;6.15;3.67;;;;;;;4.50;100.00;99271.63;4188569;28;20472;-71
2022/10/04 03:09:35;;;;;;;6.95;3.80;;;;;;;4.53;100.00;99272.91;4188382;28;20385;-71
2022/10/04 03:11:39;;;;;;;7.32;4.47;;;;;;;4.52;100.00;99258.41;4188761;28;20051;-71
2022/10/04 03:13:44;;;;;;;6.38;3.85;;;;;;;4.63;100.00;99253.44;4188213;28;20106;-71
2022/10/04 03:15:45;;;;;;;11.85;4.28;;;;;;;4.70;100.00;99246.34;4188437;28;20045;-71
2022/10/04 03:17:46;;;;;;;4.40;3.45;;;;;;;4.74;100.00;99247.34;4188521;28;20212;-71
2022/10/04 03:19:48;;;;;;;7.15;4.55;;;;;;;4.73;100.00;99247.66;4188038;28;20067;-71
2022/10/04 03:21:54;;;;;;;7.57;3.85;;;;;;;4.74;100.00;99243.78;4188768;28;20120;-71
2022/10/04 03:23:55;;;;;;;12.68;4.35;;;;;;;4.78;100.00;99236.53;4188931;28;20137;-71
2022/10/04 03:26:33;;;;;;;6.63;4.78;;;;;;;4.87;100.00;99225.56;4188528;28;20057;-71
2022/10/04 03:28:36;;;;;;;5.65;3.90;;;;;;;4.96;100.00;99221.69;4187093;28;20059;-71
2022/10/04 03:30:36;;;;;;;7.18;4.30;;;;;;;5.00;100.00;99213.63;4189023;28;20518;-71
2022/10/04 03:32:38;;;;;;;5.47;3.75;;;;;;;5.05;100.00;99233.47;4188191;28;20076;-71
2022/10/04 03:34:42;;;;;;;6.65;4.43;;;;;;;5.08;100.00;99238.31;4188360;28;20383;-71
2022/10/04 03:36:46;;;;;;;8.82;4.00;;;;;;;5.12;100.00;99241.22;4186983;28;20075;-71
2022/10/04 03:38:48;;;;;;;6.05;4.00;;;;;;;5.11;100.00;99239.59;4187728;28;20100;-71
2022/10/04 03:40:52;;;;;;;5.20;3.75;;;;;;;5.08;100.00;99243.00;4188587;28;20040;-71
2022/10/04 03:42:54;;;;;;;7.88;3.65;;;;;;;5.01;100.00;99242.66;4187588;28;20040;-71
2022/10/04 03:45:07;;;;;;;6.10;3.47;;;;;;;4.98;100.00;99244.13;4188086;28;20052;-71
2022/10/04 03:47:16;;;;;;;7.75;4.00;;;;;;;4.93;100.00;99241.53;4188136;28;20048;-71
2022/10/04 03:49:36;;;;;;;9.23;5.07;;;;;;;4.89;100.00;99239.78;4186589;28;20551;-71
2022/10/04 03:51:42;;;;;;;6.72;4.40;;;;;;;4.88;100.00;99249.94;4188067;28;20045;-71
2022/10/04 03:53:46;;;;;;;7.43;4.47;;;;;;;4.85;100.00;99244.28;4188003;28;20063;-71
2022/10/04 03:55:46;;;;;;;6.07;3.70;;;;;;;4.85;100.00;99250.56;4186911;28;20461;-71
2022/10/04 03:57:47;;;;;;;5.55;3.53;;;;;;;4.87;100.00;99245.56;4187529;28;20109;-70
2022/10/04 03:59:49;;;;;;;7.90;4.03;;;;;;;4.88;100.00;99236.22;4187373;28;20059;-71
2022/10/04 04:02:15;;;;;;;7.18;4.05;;;;;;;4.92;100.00;99242.66;4187933;28;20399;-71
2022/10/04 04:04:22;;;;;;;4.47;3.28;;;;;;;4.96;100.00;99246.38;4186634;28;20049;-71
2022/10/04 04:06:26;;;;;;;11.13;4.20;;;;;;;4.99;100.00;99242.19;4187912;28;20048;-71
2022/10/04 04:08:35;;;;;;;9.70;4.40;;;;;;;4.98;100.00;99238.66;4186934;28;20049;-71
2022/10/04 04:10:40;;;;;;;12.32;4.68;;;;;;;4.99;100.00;99233.97;4187410;28;20280;-71
2022/10/04 04:13:02;;;;;;;9.77;4.72;;;;;;;4.97;100.00;99234.28;4187291;28;20084;-71
2022/10/04 04:15:06;;;;;;;7.63;4.25;;;;;;;4.99;100.00;99248.47;4187550;28;20468;-71
2022/10/04 04:17:17;;;;;;;8.55;4.78;;;;;;;5.03;100.00;99243.16;4187036;28;20051;-71
2022/10/04 04:19:22;;;;;;;11.35;7.22;;;;;;;5.06;100.00;99248.00;4187474;28;20309;-71
2022/10/04 04:21:25;;;;;;;11.25;6.43;;;;;;;5.06;100.00;99242.53;4188457;28;20128;-71
2022/10/04 04:23:36;;;;;;;19.77;6.03;;;;;;;5.12;100.00;99254.13;4187948;28;20049;-71
2022/10/04 04:25:41;;;;;;;11.50;5.78;;;;;;;5.09;100.00;99247.34;4187029;28;20158;-71
2022/10/04 04:27:45;;;;;;;7.32;4.43;;;;;;;5.12;100.00;99249.44;4187224;28;20178;-71
2022/10/04 04:29:51;;;;;;;9.95;4.75;;;;;;;5.13;100.00;99250.25;4187076;28;20044;-71
2022/10/04 04:32:07;;;;;;;12.90;7.20;;;;;;;5.10;100.00;99250.91;4187842;28;20464;-71
2022/10/04 04:34:23;;;;;;;19.10;10.35;;;;;;;5.09;100.00;99239.13;4187241;28;20131;-71
2022/10/04 04:36:25;;;;;;;19.48;8.73;;;;;;;5.07;100.00;99255.91;4187445;28;20494;-71
2022/10/04 04:38:25;;;;;;;16.35;7.35;;;;;;;5.08;100.00;99256.72;4179446;28;20109;-71
2022/10/04 04:40:26;;;;;;;10.95;5.50;;;;;;;5.10;100.00;99248.16;4187663;28;20382;-71
2022/10/04 04:42:32;;;;;;;8.00;5.43;;;;;;;5.12;100.00;99241.22;4186899;28;20369;-71
2022/10/04 04:44:33;;;;;;;9.00;5.00;;;;;;;5.13;100.00;99233.78;4186693;28;20059;-71
2022/10/04 04:46:33;;;;;;;11.45;5.63;;;;;;;5.13;100.00;99242.84;4187504;28;20481;-71
2022/10/04 04:48:35;;;;;;;10.95;5.40;;;;;;;5.10;100.00;99229.75;4186570;28;20091;-71
2022/10/04 04:50:38;;;;;;;8.48;5.40;;;;;;;5.12;100.00;99232.97;4187883;28;20033;-71
2022/10/04 04:52:41;;;;;;;8.38;5.38;;;;;;;5.11;100.00;99223.13;4187589;28;20090;-71
2022/10/04 04:54:45;;;;;;;8.23;4.95;;;;;;;5.17;100.00;99218.31;4137220;28;20563;-71
2022/10/04 04:56:49;;;;;;;7.35;5.32;;;;;;;5.21;100.00;99217.34;4199789;28;20117;-71
2022/10/04 04:58:53;;;;;;;7.63;5.40;;;;;;;5.23;100.00;99204.09;4186512;28;20047;-71
2022/10/04 05:01:00;;;;;;;9.63;6.07;;;;;;;5.26;100.00;99202.63;4187342;28;20047;-71
2022/10/04 05:03:02;;;;;;;9.63;5.10;;;;;;;5.27;100.00;99198.75;4186600;28;20481;-71
2022/10/04 05:05:16;;;;;;;7.30;4.88;;;;;;;5.31;100.00;99202.47;4187102;28;20071;-71
2022/10/04 05:07:18;;;;;;;8.88;5.38;;;;;;;5.35;100.00;99214.41;4186468;28;20094;-71
2022/10/04 05:09:21;;;;;;;10.02;5.85;;;;;;;5.37;100.00;99217.63;4186759;28;20139;-71
2022/10/04 05:11:28;;;;;;;8.40;5.57;;;;;;;5.35;100.00;99212.47;4186830;28;20057;-71
2022/10/04 05:13:51;;;;;;;10.40;5.03;;;;;;;5.38;100.00;99218.41;4186915;28;20051;-71
2022/10/04 05:15:53;;;;;;;;;;;;;;;5.39;100.00;99220.06;4175515;28;20048;-71
2022/10/04 05:17:54;;;;;;;11.25;5.60;;;;;;;5.39;100.00;99223.59;4186676;28;19962;-71
2022/10/04 05:19:58;;;;;;;7.82;5.35;;;;;;;5.39;100.00;99223.59;4186516;28;20472;-71
2022/10/04 05:22:01;;;;;;;8.82;5.20;;;;;;;5.35;100.00;99215.19;4187008;28;20044;-71
2022/10/04 05:24:18;;;;;;;7.82;5.22;;;;;;;5.35;100.00;99220.69;4186111;28;20092;-72
2022/10/04 05:26:27;;;;;;;9.75;5.07;;;;;;;5.33;100.00;99225.72;4186426;28;20032;-71
2022/10/04 05:28:28;;;;;;;7.93;5.32;;;;;;;5.30;100.00;99214.59;4185865;28;20156;-71
2022/10/04 05:30:58;;;;;;;11.65;6.40;;;;;;;5.32;100.00;99210.38;4186454;28;20122;-71
2022/10/04 05:33:06;;;;;;;11.60;5.30;;;;;;;5.35;100.00;99211.66;4182038;28;20147;-71
2022/10/04 05:35:27;;;;;;;8.80;4.90;;;;;;;5.34;100.00;99207.31;4185354;28;20099;-71
2022/10/04 05:37:54;;;;;;;9.25;4.95;;;;;;;5.36;100.00;99207.78;4173120;28;20440;-71
2022/10/04 05:40:10;;;;;;;7.05;4.60;;;;;;;5.37;100.00;99209.38;4184298;28;20696;-71
2022/10/04 05:42:25;;;;;;;10.10;5.63;;;;;;;5.38;100.00;99204.69;4185803;28;20041;-71
2022/10/04 05:44:35;;;;;;;8.32;4.78;;;;;;;5.43;100.00;99213.56;4186275;28;20515;-71
2022/10/04 05:46:36;;;;;;;10.75;5.90;;;;;;;5.47;100.00;99217.31;4186245;28;20159;-71
2022/10/04 05:48:40;;;;;;;12.25;6.22;;;;;;;5.52;100.00;99219.03;4185720;28;20467;-71
2022/10/04 05:50:42;;;;;;;9.23;5.15;;;;;;;5.55;100.00;99224.72;4185565;28;20051;-72
2022/10/04 05:52:45;;;;;;;8.18;4.65;;;;;;;5.55;100.00;99221.97;4186249;28;20207;-71
2022/10/04 05:54:45;;;;;;;;;;;;;;;5.56;100.00;99225.50;4186629;28;20366;-71
2022/10/04 05:56:57;;;;;;;7.38;4.78;;;;;;;5.56;100.00;99231.81;4186223;28;19923;-71
2022/10/04 05:59:17;;;;;;;13.15;7.40;;;;;;;5.58;100.00;99225.97;4184640;28;20036;-71
2022/10/04 06:01:17;;;;;;;10.20;5.63;;;;;;;5.56;100.00;99225.50;4185808;28;20456;-71
2022/10/04 06:03:29;;;;;;;8.93;4.88;;;;;;;5.56;100.00;99226.31;4170617;28;20086;-71
2022/10/04 06:05:45;;;;;;;13.93;5.22;;;;;;;5.59;100.00;99235.81;4185605;28;20044;-71
2022/10/04 06:08:08;;;;;;;6.88;4.22;;;;;;;5.62;100.00;99237.91;4185059;28;20044;-71
2022/10/04 06:10:24;;;;;;;7.90;4.18;;;;;;;5.64;100.00;99235.66;4185008;28;20098;-71
2022/10/04 06:12:56;;;;;;;6.70;4.80;;;;;;;5.66;100.00;99232.59;4185691;28;20040;-71
2022/10/04 06:15:20;;;;;;;7.50;4.30;;;;;;;5.69;100.00;99229.19;4185825;28;20170;-71
2022/10/04 06:17:26;;;;;;;7.20;4.13;;;;;;;5.72;100.00;99232.09;4186186;28;20044;-71
2022/10/04 06:20:07;;;;;;;12.57;4.32;;;;;;;5.75;100.00;99228.69;4185728;28;20254;-71
2022/10/04 06:22:15;;;;;;;7.93;4.88;;;;;;;5.80;100.00;99241.44;4185654;28;20040;-71
2022/10/04 06:24:34;;;;;;;8.25;4.90;;;;;;;5.84;100.00;99236.88;4186289;28;20627;-71
2022/10/04 06:26:44;;;;;;;10.63;4.70;;;;;;;5.90;100.00;99244.66;4185857;28;20059;-71
2022/10/04 06:28:50;;;;;;;11.68;4.65;;;;;;;5.92;100.00;99241.56;4185563;28;20439;-71
2022/10/04 06:31:19;;;;;;;10.60;4.70;;;;;;;5.98;100.00;99251.25;4185281;28;20033;-71
2022/10/04 06:33:36;;;;;;;7.82;4.97;;;;;;;6.02;100.00;99243.97;4185577;28;20505;-71
2022/10/04 06:35:59;;;;;;;10.05;4.30;;;;;;;6.08;100.00;99236.34;4186403;28;20390;-71
2022/10/04 06:38:22;;;;;;;8.20;5.53;;;;;;;6.12;100.00;99246.38;4185711;28;20203;-71
2022/10/04 06:41:04;;;;;;;7.72;5.07;;;;;;;6.17;100.00;99245.34;4185794;28;20129;-71
2022/10/04 06:43:15;;;;;;;8.18;4.60;;;;;;;6.23;100.00;99248.75;4149892;28;20058;-71
2022/10/04 06:45:35;;;;;;;9.40;5.38;;;;;;;6.25;100.00;99251.94;4168746;28;20400;-71
2022/10/04 06:47:47;;;;;;;7.32;4.70;;;;;;;6.32;100.00;99252.25;4185352;28;20122;-71
2022/10/04 06:49:59;;;;;;;10.45;5.32;;;;;;;6.38;100.00;99251.72;4185303;28;20048;-71
2022/10/04 06:52:23;;;;;;;7.32;4.75;;;;;;;6.43;100.00;99247.97;4185770;28;20105;-71
2022/10/04 06:54:33;;;;;;;9.13;5.55;;;;;;;6.50;100.00;99248.25;4184352;28;20380;-71
2022/10/04 06:57:04;;;;;;;15.15;6.30;;;;;;;6.57;100.00;99242.25;4186061;28;20101;-71
2022/10/04 06:59:17;;;;;;;7.50;4.80;;;;;;;6.65;100.00;99244.13;4184712;28;20488;-71
2022/10/04 07:01:26;;;;;;;10.75;5.65;;;;;;;6.70;100.00;99247.50;4186394;28;20143;-71
2022/10/04 07:03:44;;;;;;;12.07;5.55;;;;;;;6.76;100.00;99242.59;4186156;28;20405;-71
2022/10/04 07:05:55;;;;;;;10.82;7.38;;;;;;;6.83;100.00;99248.38;4185263;28;20244;-71
2022/10/04 07:08:29;;;;;;;10.20;6.68;;;;;;;6.90;100.00;99251.41;4185517;28;20165;-71
2022/10/04 07:10:33;;;;;;;10.45;6.60;;;;;;;6.96;100.00;99252.03;4185835;28;20064;-71
2022/10/04 07:12:39;;;;;;;10.40;7.22;;;;;;;7.03;100.00;99246.75;4185918;28;20052;-71
2022/10/04 07:14:45;;;;;;;11.65;7.43;;;;;;;7.08;100.00;99246.56;4185563;28;20237;-71
2022/10/04 07:16:48;;;;;;;9.85;7.38;;;;;;;7.14;100.00;99249.94;4185784;28;20048;-71
2022/10/04 07:18:58;;;;;;;19.27;15.45;;;;;;;7.22;100.00;99244.34;4185066;28;20536;-71
2022/10/04 07:21:10;;;;;;;16.02;9.77;;;;;;;7.28;100.00;99239.44;4185116;28;20083;-72
2022/10/04 07:23:25;;;;;;;10.82;6.85;;;;;;;7.36;100.00;99244.03;4185344;28;20488;-72
2022/10/04 07:25:47;;;;;;;15.82;8.80;;;;;;;7.41;100.00;99235.59;4185496;28;20044;-72
2022/10/04 07:30:19;;;;;;;11.23;6.82;;;;;;;7.53;100.00;99238.41;4188145;28;20128;-72
2022/10/04 07:32:27;;;;;;;;;;;;;;;7.59;100.00;99250.78;4189420;28;20025;-72
2022/10/04 07:34:31;;;;;;;10.65;7.03;;;;;;;7.67;100.00;99262.06;4188297;28;20318;-72
2022/10/04 07:36:51;;;;;;;15.23;8.55;;;;;;;7.73;100.00;99260.72;4188435;28;20423;-72
2022/10/04 07:39:03;;;;;;;13.55;8.15;;;;;;;7.78;100.00;99249.50;4187853;28;20092;-71
2022/10/04 07:41:11;;;;;;;12.17;8.27;;;;;;;7.83;100.00;99255.56;4188640;28;20097;-72
2022/10/04 07:43:25;;;;;;;23.45;13.98;;;;;;;7.89;100.00;99259.72;4188532;28;20858;-72
2022/10/04 07:45:31;;;;;;;22.95;13.27;;;;;;;7.97;100.00;99265.47;4188378;28;20536;-72
2022/10/04 07:47:31;;;;;;;19.05;10.40;;;;;;;8.03;100.00;99266.88;4188238;28;20048;-72
2022/10/04 07:49:38;;;;;;;12.75;8.32;;;;;;;8.07;100.00;99265.03;4187685;28;20048;-72
2022/10/04 07:52:03;;;;;;;14.73;6.47;;;;;;;8.11;100.00;99277.81;4188106;28;20053;-72
2022/10/04 07:54:21;;;;;;;12.13;7.35;;;;;;;8.16;100.00;99280.31;4178264;28;20059;-72
2022/10/04 07:56:32;;;;;;;14.95;8.85;;;;;;;8.23;100.00;99279.75;4188407;28;20044;-72
2022/10/04 07:59:16;;;;;;;15.65;7.70;;;;;;;8.34;100.00;99275.38;4175394;28;20045;-72
2022/10/04 08:01:26;;;;;;;11.05;6.45;;;;;;;8.43;100.00;99280.81;4188158;28;20726;-72
2022/10/04 08:03:58;;;;;;;10.13;6.40;;;;;;;8.50;100.00;99283.03;4188074;28;20040;-72
2022/10/04 08:06:10;;;;;;;10.35;6.13;;;;;;;8.55;100.00;99269.00;4187577;28;20045;-72
2022/10/04 08:08:23;;;;;;;10.27;5.15;;;;;;;8.64;100.00;99264.97;4187774;28;20499;-72
2022/10/04 08:11:04;;;;;;;6.72;5.07;;;;;;;8.76;100.00;99268.88;4188192;28;20071;-72
2022/10/04 08:13:13;;;;;;;11.68;6.07;;;;;;;8.82;100.00;99268.28;4187650;28;20090;-72
2022/10/04 08:15:13;;;;;;;9.57;5.00;;;;;;;8.86;100.00;99271.16;4187703;28;20112;-72
2022/10/04 08:17:23;;;;;;;8.88;5.35;;;;;;;8.90;100.00;99263.78;4188099;28;20434;-72
2022/10/04 08:20:19;;;;;;;7.72;4.78;;;;;;;8.97;100.00;99264.81;4187045;28;20496;-72
2022/10/04 08:22:28;;;;;;;9.05;4.68;;;;;;;9.05;100.00;99265.03;4107660;28;20556;-72
2022/10/04 08:24:39;;;;;;;8.65;5.38;;;;;;;9.10;100.00;99262.00;4187406;28;20132;-72
2022/10/04 08:26:50;;;;;;;11.80;5.78;;;;;;;9.14;100.00;99262.94;4187478;28;20067;-72
2022/10/04 08:32:03;;;;;;;7.95;5.15;;;;;;;9.26;100.00;99254.59;4186730;28;20146;-72
2022/10/04 08:34:30;;;;;;;8.45;5.07;;;;;;;9.31;100.00;99251.59;4186282;28;20049;-72
2022/10/04 08:36:45;;;;;;;9.32;4.50;;;;;;;9.36;98.52;99262.41;4187437;28;20040;-72
2022/10/04 08:38:56;;;;;;;7.72;4.53;;;;;;;9.44;99.25;99255.94;4185783;28;20057;-72
2022/10/04 08:41:25;;;;;;;9.07;5.13;;;;;;;9.51;100.00;99255.31;4187242;28;20434;-72
2022/10/04 08:43:50;;;;;;;12.85;5.40;;;;;;;9.55;100.00;99250.69;4150665;28;20048;-71
2022/10/04 08:46:03;;;;;;;9.05;5.60;;;;;;;9.62;100.00;99256.44;4174404;28;20049;-72
2022/10/04 08:48:31;;;;;;;8.90;5.72;;;;;;;9.65;100.00;99264.00;4185943;28;20049;-72
2022/10/04 08:50:38;;;;;;;10.73;6.10;;;;;;;9.74;100.00;99259.13;4185592;28;20048;-72
2022/10/04 08:53:06;;;;;;;10.60;4.97;;;;;;;9.79;100.00;99253.34;4186729;28;20051;-72
2022/10/04 08:55:36;;;;;;;9.65;5.32;;;;;;;9.85;100.00;99253.91;4185604;28;20494;-72
2022/10/04 08:57:55;;;;;;;13.90;4.70;;;;;;;9.90;99.42;99256.38;4186562;28;20179;-72
2022/10/04 09:00:05;;;;;;;13.55;5.07;;;;;;;9.95;99.85;99263.63;4186366;28;20052;-72
2022/10/04 09:02:29;;;;;;;8.45;4.70;;;;;;;10.00;99.88;99257.81;4186151;28;20085;-72
2022/10/04 09:04:57;;;;;;;11.73;5.20;;;;;;;10.05;100.00;99255.59;4186721;28;20048;-72
2022/10/04 09:07:21;;;;;;;8.25;5.30;;;;;;;10.12;99.50;99249.47;4187328;28;20048;-72
2022/10/04 09:09:58;;;;;;;12.68;5.32;;;;;;;10.18;99.64;99250.81;4186398;28;20444;-72
2022/10/04 09:11:59;;;;;;;12.48;5.43;;;;;;;10.23;100.00;99252.53;4185498;28;20496;-72
2022/10/04 09:14:05;;;;;;;11.55;4.90;;;;;;;10.33;99.16;99258.31;4186658;28;20059;-72
2022/10/04 09:16:05;;;;;;;8.55;4.97;;;;;;;10.41;98.40;99257.31;4186544;28;20407;-72
2022/10/04 09:18:12;;;;;;;6.78;4.93;;;;;;;10.46;97.77;99244.41;4186163;28;20033;-72
2022/10/04 09:20:20;;;;;;;7.50;4.85;;;;;;;10.44;96.91;99242.00;4185882;28;20029;-72
2022/10/04 09:22:55;;;;;;;8.40;4.68;;;;;;;10.48;97.30;99234.56;4186760;28;21854;-72
2022/10/04 09:25:08;;;;;;;10.30;5.53;;;;;;;10.58;96.61;99228.47;4186592;28;20647;-72
2022/10/04 09:27:53;;;;;;;9.73;5.53;;;;;;;10.67;95.84;99239.34;4186670;28;20049;-72
2022/10/04 09:30:13;;;;;;;5.95;4.50;;;;;;;10.69;95.68;99232.31;4117698;28;20051;-72
2022/10/04 09:32:29;;;;;;;8.27;4.53;;;;;;;10.76;94.84;99239.97;4117723;28;20610;-72
2022/10/04 09:34:56;;;;;;;9.95;4.95;;;;;;;10.82;93.40;99227.44;4136497;28;20043;-72
2022/10/04 09:37:18;;;;;;;9.77;5.38;;;;;;;10.95;92.39;99220.63;4186363;28;20036;-72
2022/10/04 09:40:05;;;;;;;10.55;5.28;;;;;;;11.08;91.22;99224.03;4185769;28;20102;-72
2022/10/04 09:42:27;;;;;;;9.82;5.00;;;;;;;11.18;90.63;99228.22;4160930;28;20045;-72
2022/10/04 09:45:08;;;;;;;8.48;5.45;;;;;;;11.25;91.02;99231.13;4186584;28;20087;-72
2022/10/04 09:47:44;;;;;;;14.95;5.00;;;;;;;11.36;90.38;99225.81;4164786;28;20048;-72
2022/10/04 09:49:53;;;;;;;8.43;4.80;;;;;;;11.40;90.17;99221.94;4183974;28;20324;-72
2022/10/04 09:52:21;;;;;;;9.02;5.22;;;;;;;11.44;90.69;99224.81;4186602;28;20055;-72
2022/10/04 09:54:55;;;;;;;7.55;4.97;;;;;;;11.50;90.50;99223.31;4185860;28;20094;-72
2022/10/04 09:57:15;;;;;;;9.07;5.10;;;;;;;11.52;91.17;99221.81;4185593;28;20033;-72
2022/10/04 09:59:43;;;;;;;11.82;5.25;;;;;;;11.58;91.12;99221.50;4185342;28;20504;-72
2022/10/04 10:01:49;;;;;;;7.43;4.60;;;;;;;11.60;90.60;99225.50;4186500;28;20108;-72
2022/10/04 10:04:18;;;;;;;8.63;4.68;;;;;;;11.62;91.02;99217.63;4185944;28;20052;-72
2022/10/04 10:06:25;;;;;;;9.25;5.03;;;;;;;11.68;90.02;99215.38;4186559;28;20397;-72
2022/10/04 10:08:25;;;;;;;9.02;4.78;;;;;;;11.72;89.10;99217.03;4185827;28;20044;-72
2022/10/04 10:16:18;;;;;;;7.97;4.63;;;;;;;11.90;88.12;99219.34;4185856;28;20140;-72
2022/10/04 10:18:34;;;;;;;7.38;4.20;;;;;;;11.96;88.71;99210.34;4185170;28;20097;-72
2022/10/04 10:20:53;;;;;;;7.65;4.25;;;;;;;12.12;87.78;99214.97;4185127;28;20045;-72
2022/10/04 10:23:17;;;;;;;5.97;4.60;;;;;;;12.25;89.24;99219.97;4185439;28;20381;-72
2022/10/04 10:25:27;;;;;;;5.78;4.13;;;;;;;12.22;88.02;99212.38;4186317;28;20052;-72
2022/10/04 10:27:51;;;;;;;4.97;3.90;;;;;;;12.31;86.74;99215.69;4186420;28;20052;-72
2022/10/04 10:30:02;;;;;;;6.68;3.63;;;;;;;12.32;86.83;99216.50;4185322;28;20044;-72